createdAt,value
2022-11-06T00:00:47.187Z,63.50
2022-11-06T00:03:14.147Z,63.28
2022-11-06T00:06:00.392Z,64.53
2022-11-06T00:08:37.279Z,63.74
2022-11-06T00:11:10.940Z,63.54
2022-11-06T00:13:38.082Z,63.82
2022-11-06T00:16:05.575Z,63.70
2022-11-06T00:18:32.652Z,64.01
2022-11-06T00:20:59.573Z,64.48
2022-11-06T00:23:26.231Z,64.73
2022-11-06T00:25:56.506Z,64.75
2022-11-06T00:28:23.595Z,64.05
2022-11-06T00:30:50.385Z,63.85
2022-11-06T00:33:17.070Z,64.45
2022-11-06T00:35:43.990Z,64.60
2022-11-06T00:38:10.921Z,64.07
2022-11-06T00:40:37.820Z,64.33
2022-11-06T00:43:04.699Z,64.07
2022-11-06T00:45:31.418Z,63.75
2022-11-06T00:47:58.089Z,64.28
2022-11-06T00:50:26.543Z,64.06
2022-11-06T00:52:53.675Z,63.70
2022-11-06T00:55:20.439Z,63.99
2022-11-06T00:57:47.376Z,64.46
2022-11-06T01:00:14.146Z,63.90
2022-11-06T01:02:41.035Z,63.61
2022-11-06T01:05:09.041Z,63.99
2022-11-06T01:07:35.774Z,63.98
2022-11-06T01:10:02.402Z,63.50
2022-11-06T01:12:31.211Z,63.55
2022-11-06T01:14:59.104Z,63.89
2022-11-06T01:17:25.841Z,64.42
2022-11-06T01:19:52.806Z,64.52
2022-11-06T01:22:19.452Z,63.90
2022-11-06T01:24:46.233Z,63.56
2022-11-06T01:27:25.855Z,64.30
2022-11-06T01:29:53.320Z,63.87
2022-11-06T01:32:20.643Z,64.74
2022-11-06T01:34:48.919Z,64.42
2022-11-06T01:37:15.544Z,64.12
2022-11-06T01:39:42.448Z,63.90
2022-11-06T01:42:13.148Z,63.18
2022-11-06T01:44:42.955Z,63.43
2022-11-06T01:47:23.980Z,64.16
2022-11-06T01:49:51.562Z,64.01
2022-11-06T01:52:18.615Z,64.24
2022-11-06T01:54:45.955Z,63.84
2022-11-06T01:57:13.011Z,63.33
2022-11-06T01:59:41.344Z,63.65
2022-11-06T02:02:08.319Z,63.87
2022-11-06T02:04:38.795Z,64.15
2022-11-06T02:07:05.517Z,64.19
2022-11-06T02:09:32.353Z,64.02
2022-11-06T02:12:03.192Z,64.55
2022-11-06T02:14:51.196Z,64.28
2022-11-06T02:17:18.081Z,64.23
2022-11-06T02:19:50.560Z,64.78
2022-11-06T02:22:29.063Z,64.67
2022-11-06T02:25:14.844Z,63.79
2022-11-06T02:27:44.302Z,64.40
2022-11-06T02:30:12.347Z,64.71
2022-11-06T02:32:46.807Z,64.39
2022-11-06T02:35:16.964Z,64.51
2022-11-06T02:37:43.647Z,64.62
2022-11-06T02:40:10.488Z,64.08
2022-11-06T02:42:38.348Z,65.41
2022-11-06T02:45:05.257Z,65.11
2022-11-06T02:47:33.192Z,64.30
2022-11-06T02:50:05.926Z,65.66
2022-11-06T02:52:34.504Z,65.47
2022-11-06T02:55:03.803Z,64.71
2022-11-06T02:57:30.488Z,64.41
2022-11-06T03:00:07.542Z,64.89
2022-11-06T03:02:43.112Z,64.54
2022-11-06T03:05:12.027Z,64.36
2022-11-06T03:07:40.343Z,63.50
2022-11-06T03:10:07.219Z,64.21
2022-11-06T03:12:38.611Z,64.67
2022-11-06T03:15:20.797Z,64.09
2022-11-06T03:18:02.659Z,63.77
2022-11-06T03:20:49.821Z,64.24
2022-11-06T03:23:19.061Z,64.72
2022-11-06T03:25:49.156Z,65.08
2022-11-06T03:28:16.068Z,64.58
2022-11-06T03:30:44.823Z,65.13
2022-11-06T03:33:11.770Z,64.50
2022-11-06T03:35:41.130Z,65.00
2022-11-06T03:38:09.564Z,64.68
2022-11-06T03:40:38.007Z,64.35
2022-11-06T03:43:05.243Z,64.44
2022-11-06T03:45:33.005Z,64.76
2022-11-06T03:48:01.400Z,64.39
2022-11-06T03:50:30.736Z,64.46
2022-11-06T03:52:59.056Z,64.39
2022-11-06T03:55:27.297Z,64.08
2022-11-06T03:57:55.444Z,64.67
2022-11-06T04:00:23.110Z,64.50
2022-11-06T04:03:04.970Z,64.81
2022-11-06T04:05:45.767Z,64.77
2022-11-06T04:08:31.519Z,64.67
2022-11-06T04:11:18.584Z,64.23
2022-11-06T04:13:57.711Z,63.84
2022-11-06T04:16:32.098Z,63.98
2022-11-06T04:18:59.207Z,64.77
2022-11-06T04:21:35.170Z,64.07
2022-11-06T04:24:26.910Z,64.32
2022-11-06T04:27:12.415Z,63.86
2022-11-06T04:29:39.311Z,63.62
2022-11-06T04:32:24.625Z,64.07
2022-11-06T04:35:20.920Z,64.08
2022-11-06T04:37:56.956Z,63.98
2022-11-06T04:40:26.320Z,64.27
2022-11-06T04:42:57.603Z,64.02
2022-11-06T04:45:26.047Z,63.35
2022-11-06T04:47:53.526Z,63.45
2022-11-06T04:50:21.025Z,63.06
2022-11-06T04:52:48.212Z,64.25
2022-11-06T04:55:14.853Z,64.07
2022-11-06T04:57:41.477Z,63.61
2022-11-06T05:00:11.090Z,63.46
2022-11-06T05:02:37.744Z,64.47
2022-11-06T05:05:04.557Z,64.01
2022-11-06T05:07:31.512Z,63.85
2022-11-06T05:09:58.331Z,64.01
2022-11-06T05:12:24.968Z,64.04
2022-11-06T05:14:51.920Z,63.88
2022-11-06T05:17:18.581Z,63.29
2022-11-06T05:19:45.236Z,63.64
2022-11-06T05:22:30.825Z,64.40
2022-11-06T05:24:57.489Z,63.64
2022-11-06T05:27:24.446Z,63.19
2022-11-06T05:29:51.114Z,64.33
2022-11-06T05:32:17.915Z,63.79
2022-11-06T05:34:46.908Z,64.86
2022-11-06T05:37:13.551Z,64.05
2022-11-06T05:39:42.088Z,64.05
2022-11-06T05:42:09.169Z,64.08
2022-11-06T05:44:36.040Z,64.31
2022-11-06T05:47:02.751Z,63.70
2022-11-06T05:49:29.727Z,63.68
2022-11-06T05:51:56.363Z,63.53
2022-11-06T05:54:24.001Z,63.81
2022-11-06T05:56:52.224Z,63.76
2022-11-06T05:59:18.883Z,63.80
2022-11-06T06:01:45.687Z,63.48
2022-11-06T06:04:12.727Z,63.63
2022-11-06T06:06:39.425Z,63.98
2022-11-06T06:09:06.153Z,63.56
2022-11-06T06:11:33.080Z,63.98
2022-11-06T06:14:00.216Z,63.75
2022-11-06T06:16:26.854Z,63.46
2022-11-06T06:18:53.751Z,64.07
2022-11-06T06:21:20.486Z,64.12
2022-11-06T06:23:47.189Z,63.95
2022-11-06T06:26:14.097Z,64.33
2022-11-06T06:28:40.793Z,64.18
2022-11-06T06:31:07.781Z,64.05
2022-11-06T06:33:34.806Z,64.27
2022-11-06T06:36:05.197Z,64.32
2022-11-06T06:38:32.127Z,64.08
2022-11-06T06:41:03.120Z,63.61
2022-11-06T06:43:29.739Z,64.75
2022-11-06T06:46:00.147Z,64.73
2022-11-06T06:48:27.129Z,63.83
2022-11-06T06:50:56.494Z,64.77
2022-11-06T06:53:23.177Z,64.41
2022-11-06T06:55:50.126Z,64.05
2022-11-06T06:58:18.203Z,64.04
2022-11-06T07:00:45.181Z,64.20
2022-11-06T07:03:12.243Z,63.94
2022-11-06T07:05:38.915Z,64.31
2022-11-06T07:08:05.601Z,63.70
2022-11-06T07:10:32.891Z,63.35
2022-11-06T07:13:02.793Z,63.18
2022-11-06T07:15:29.509Z,63.51
2022-11-06T07:18:01.740Z,64.06
2022-11-06T07:20:29.113Z,63.44
2022-11-06T07:22:56.134Z,63.62
2022-11-06T07:25:22.758Z,64.43
2022-11-06T07:27:49.418Z,64.02
2022-11-06T07:30:16.979Z,63.28
2022-11-06T07:32:43.794Z,63.71
2022-11-06T07:35:10.544Z,63.38
2022-11-06T07:37:37.454Z,64.08
2022-11-06T07:40:05.367Z,63.13
2022-11-06T07:42:32.009Z,63.35
2022-11-06T07:45:00.807Z,64.34
2022-11-06T07:47:30.115Z,64.10
2022-11-06T07:49:56.771Z,64.78
2022-11-06T07:52:23.848Z,63.62
2022-11-06T07:54:51.864Z,63.87
2022-11-06T07:57:18.557Z,64.09
2022-11-06T07:59:45.507Z,63.57
2022-11-06T08:02:13.099Z,63.89
2022-11-06T08:04:40.236Z,62.98
2022-11-06T08:07:06.915Z,63.80
2022-11-06T08:09:33.572Z,64.02
2022-11-06T08:12:00.483Z,63.37
2022-11-06T08:14:27.116Z,63.92
2022-11-06T08:16:54.062Z,64.75
2022-11-06T08:19:21.085Z,63.83
2022-11-06T08:21:47.734Z,63.45
2022-11-06T08:24:19.046Z,64.55
2022-11-06T08:26:48.638Z,63.97
2022-11-06T08:29:15.300Z,64.29
2022-11-06T08:31:42.183Z,63.39
2022-11-06T08:34:09.320Z,63.85
2022-11-06T08:36:36.958Z,64.28
2022-11-06T08:39:03.703Z,63.56
2022-11-06T08:41:30.621Z,63.74
2022-11-06T08:43:57.445Z,64.31
2022-11-06T08:46:24.104Z,64.23
2022-11-06T08:48:51.095Z,64.13
2022-11-06T08:51:17.821Z,64.23
2022-11-06T08:53:44.603Z,64.35
2022-11-06T08:56:12.084Z,64.29
2022-11-06T08:58:38.707Z,64.96
2022-11-06T09:01:05.444Z,64.56
2022-11-06T09:03:32.452Z,64.73
2022-11-06T09:05:59.165Z,64.22
2022-11-06T09:08:25.993Z,64.05
2022-11-06T09:10:58.153Z,64.17
2022-11-06T09:13:26.316Z,64.45
2022-11-06T09:15:53.297Z,63.93
2022-11-06T09:18:20.378Z,64.65
2022-11-06T09:20:47.286Z,64.58
2022-11-06T09:23:15.527Z,64.85
2022-11-06T09:25:42.723Z,63.95
2022-11-06T09:28:09.915Z,64.73
2022-11-06T09:30:37.427Z,64.71
2022-11-06T09:33:06.169Z,64.80
2022-11-06T09:35:36.275Z,64.37
2022-11-06T09:38:03.958Z,64.15
2022-11-06T09:40:44.583Z,64.99
2022-11-06T09:43:43.156Z,64.32
2022-11-06T09:46:21.202Z,64.76
2022-11-06T09:48:50.763Z,64.68
2022-11-06T09:51:35.983Z,63.60
2022-11-06T09:54:16.593Z,64.17
2022-11-06T09:56:43.377Z,63.53
2022-11-06T09:59:17.404Z,64.21
2022-11-06T10:01:46.277Z,64.77
2022-11-06T10:04:37.037Z,64.18
2022-11-06T10:07:11.656Z,63.04
2022-11-06T10:09:38.803Z,63.80
2022-11-06T10:12:11.675Z,63.30
2022-11-06T10:14:41.587Z,63.48
2022-11-06T10:17:27.205Z,63.89
2022-11-06T10:19:58.063Z,63.32
2022-11-06T10:22:31.298Z,63.22
2022-11-06T10:25:04.523Z,63.47
2022-11-06T10:27:41.279Z,62.50
2022-11-06T10:30:08.294Z,63.62
2022-11-06T10:32:54.032Z,63.49
2022-11-06T10:35:24.000Z,64.30
2022-11-06T10:38:13.126Z,64.24
2022-11-06T10:40:40.458Z,62.57
2022-11-06T10:43:07.186Z,63.96
2022-11-06T10:45:33.996Z,63.48
2022-11-06T10:48:05.896Z,64.51
2022-11-06T10:50:40.456Z,63.84
2022-11-06T10:53:08.677Z,63.88
2022-11-06T10:55:39.831Z,63.58
2022-11-06T10:58:10.888Z,63.44
2022-11-06T11:00:40.308Z,63.86
2022-11-06T11:03:13.826Z,63.97
2022-11-06T11:05:41.824Z,65.13
2022-11-06T11:08:44.221Z,64.61
2022-11-06T11:11:14.254Z,63.86
2022-11-06T11:13:41.856Z,63.27
2022-11-06T11:16:16.925Z,63.93
2022-11-06T11:18:44.791Z,64.14
2022-11-06T11:21:17.653Z,63.83
2022-11-06T11:23:46.427Z,63.49
2022-11-06T11:26:13.109Z,62.80
2022-11-06T11:28:39.728Z,63.40
2022-11-06T11:31:12.014Z,64.11
2022-11-06T11:33:42.434Z,63.46
2022-11-06T11:36:09.951Z,63.50
2022-11-06T11:38:37.525Z,63.22
2022-11-06T11:41:19.511Z,62.49
2022-11-06T11:43:59.123Z,63.63
2022-11-06T11:46:27.249Z,63.15
2022-11-06T11:48:57.884Z,63.71
2022-11-06T11:51:28.385Z,63.65
2022-11-06T11:54:13.673Z,63.30
2022-11-06T11:57:03.765Z,62.27
2022-11-06T11:59:38.413Z,63.06
2022-11-06T12:02:19.802Z,63.66
2022-11-06T12:04:53.514Z,63.15
2022-11-06T12:07:30.127Z,63.10
2022-11-06T12:09:57.109Z,62.85
2022-11-06T12:12:24.703Z,62.30
2022-11-06T12:15:04.173Z,63.96
2022-11-06T12:17:31.739Z,64.20
2022-11-06T12:19:58.871Z,63.73
2022-11-06T12:22:28.016Z,63.16
2022-11-06T12:24:56.375Z,63.17
2022-11-06T12:27:24.554Z,62.73
2022-11-06T12:29:51.995Z,63.53
2022-11-06T12:32:21.755Z,61.97
2022-11-06T12:34:50.940Z,61.89
2022-11-06T12:37:23.441Z,61.01
2022-11-06T12:40:05.588Z,62.28
2022-11-06T12:42:32.369Z,63.48
2022-11-06T12:44:59.699Z,63.40
2022-11-06T12:47:34.012Z,63.45
2022-11-06T12:50:13.372Z,63.31
2022-11-06T12:53:03.452Z,63.33
2022-11-06T12:55:38.032Z,63.21
2022-11-06T12:58:11.162Z,62.25
2022-11-06T13:00:41.672Z,62.25
2022-11-06T13:03:08.752Z,62.15
2022-11-06T13:05:38.270Z,62.86
2022-11-06T13:08:20.768Z,62.73
2022-11-06T13:10:52.259Z,62.76
2022-11-06T13:13:22.186Z,62.31
2022-11-06T13:15:51.710Z,63.22
2022-11-06T13:18:18.468Z,61.76
2022-11-06T13:20:52.768Z,62.35
2022-11-06T13:23:27.010Z,62.10
2022-11-06T13:26:04.561Z,61.49
2022-11-06T13:28:35.618Z,62.56
2022-11-06T13:31:03.509Z,62.52
2022-11-06T13:33:31.419Z,60.88
2022-11-06T13:35:59.246Z,62.10
2022-11-06T13:38:29.800Z,62.89
2022-11-06T13:41:03.649Z,62.52
2022-11-06T13:43:31.154Z,62.70
2022-11-06T13:46:07.659Z,61.80
2022-11-06T13:48:37.750Z,62.02
2022-11-06T13:51:09.044Z,61.38
2022-11-06T13:53:39.103Z,62.21
2022-11-06T13:56:07.190Z,61.87
2022-11-06T13:58:55.379Z,61.44
2022-11-06T14:01:34.805Z,61.49
2022-11-06T14:04:09.251Z,61.29
2022-11-06T14:06:36.433Z,61.13
2022-11-06T14:09:07.410Z,61.20
2022-11-06T14:11:38.103Z,61.86
2022-11-06T14:14:15.014Z,62.47
2022-11-06T14:16:43.693Z,62.06
2022-11-06T14:19:15.211Z,61.78
2022-11-06T14:21:47.195Z,61.07
2022-11-06T14:24:14.384Z,61.14
2022-11-06T14:26:45.584Z,61.02
2022-11-06T14:29:27.922Z,60.45
2022-11-06T14:32:07.940Z,60.49
2022-11-06T14:34:35.564Z,60.71
2022-11-06T14:37:18.035Z,61.19
2022-11-06T14:39:52.987Z,61.03
2022-11-06T14:42:40.574Z,61.47
2022-11-06T14:45:12.544Z,61.52
2022-11-06T14:47:39.736Z,61.52
2022-11-06T14:50:09.269Z,61.66
2022-11-06T14:52:48.111Z,61.07
2022-11-06T14:55:24.082Z,60.98
2022-11-06T14:57:51.391Z,61.06
2022-11-06T15:00:38.494Z,61.27
2022-11-06T15:03:06.275Z,61.95
2022-11-06T15:05:41.869Z,61.62
2022-11-06T15:08:09.464Z,61.41
2022-11-06T15:10:42.449Z,61.57
2022-11-06T15:13:09.524Z,61.67
2022-11-06T15:15:36.492Z,60.63
2022-11-06T15:18:03.207Z,60.94
2022-11-06T15:20:31.190Z,60.95
2022-11-06T15:22:59.802Z,60.63
2022-11-06T15:25:28.166Z,60.89
2022-11-06T15:27:59.693Z,60.83
2022-11-06T15:30:26.836Z,61.14
2022-11-06T15:32:54.700Z,61.10
2022-11-06T15:35:28.867Z,61.36
2022-11-06T15:38:04.851Z,60.49
2022-11-06T15:40:36.267Z,60.55
2022-11-06T15:43:22.142Z,60.09
2022-11-06T15:46:06.825Z,60.51
2022-11-06T15:48:35.219Z,60.39
2022-11-06T15:51:03.007Z,60.85
2022-11-06T15:53:30.397Z,60.96
2022-11-06T15:56:01.810Z,61.61
2022-11-06T15:58:35.822Z,60.90
2022-11-06T16:01:03.972Z,61.48
2022-11-06T16:03:32.482Z,61.50
2022-11-06T16:06:03.683Z,61.91
2022-11-06T16:08:31.791Z,61.43
2022-11-06T16:10:59.343Z,61.50
2022-11-06T16:13:26.947Z,61.60
2022-11-06T16:15:53.864Z,62.21
2022-11-06T16:18:23.913Z,61.89
2022-11-06T16:20:57.357Z,61.58
2022-11-06T16:23:33.587Z,62.33
2022-11-06T16:26:11.724Z,62.68
2022-11-06T16:28:42.635Z,62.80
2022-11-06T16:31:23.360Z,63.00
2022-11-06T16:33:57.593Z,62.43
2022-11-06T16:36:25.950Z,62.56
2022-11-06T16:38:54.276Z,62.54
2022-11-06T16:41:42.767Z,62.84
2022-11-06T16:44:22.584Z,62.41
2022-11-06T16:47:09.780Z,62.41
2022-11-06T16:49:40.796Z,62.87
2022-11-06T16:52:28.013Z,62.77
2022-11-06T16:54:56.824Z,63.06
2022-11-06T16:57:26.110Z,62.80
2022-11-06T17:00:13.657Z,62.78
2022-11-06T17:02:41.023Z,62.59
2022-11-06T17:05:13.164Z,62.87
2022-11-06T17:07:41.900Z,63.15
2022-11-06T17:10:24.686Z,63.25
2022-11-06T17:12:52.044Z,62.95
2022-11-06T17:15:24.895Z,63.62
2022-11-06T17:17:52.195Z,62.95
2022-11-06T17:20:19.718Z,62.85
2022-11-06T17:22:47.070Z,62.48
2022-11-06T17:25:14.624Z,62.14
2022-11-06T17:27:42.024Z,61.48
2022-11-06T17:30:13.371Z,61.34
2022-11-06T17:32:41.257Z,61.26
2022-11-06T17:35:09.603Z,61.44
2022-11-06T17:37:37.059Z,61.41
2022-11-06T17:40:08.142Z,60.86
2022-11-06T17:42:35.796Z,60.73
2022-11-06T17:45:03.764Z,60.55
2022-11-06T17:47:32.023Z,61.02
2022-11-06T17:50:00.007Z,61.04
2022-11-06T17:52:27.916Z,60.40
2022-11-06T17:54:55.536Z,60.24
2022-11-06T17:57:24.193Z,60.24
2022-11-06T17:59:51.685Z,60.47
2022-11-06T18:02:40.781Z,60.39
2022-11-06T18:05:08.410Z,60.10
2022-11-06T18:07:35.772Z,60.67
2022-11-06T18:10:04.704Z,60.67
2022-11-06T18:12:32.384Z,60.96
2022-11-06T18:15:01.226Z,60.85
2022-11-06T18:17:29.989Z,60.87
2022-11-06T18:19:57.881Z,60.87
2022-11-06T18:22:25.146Z,60.71
2022-11-06T18:24:53.866Z,61.08
2022-11-06T18:27:21.811Z,60.37
2022-11-06T18:29:48.613Z,60.30
2022-11-06T18:32:16.474Z,59.89
2022-11-06T18:34:44.801Z,60.42
2022-11-06T18:37:12.292Z,60.66
2022-11-06T18:39:40.297Z,61.00
2022-11-06T18:42:08.060Z,59.80
2022-11-06T18:44:40.918Z,60.09
2022-11-06T18:47:08.890Z,60.48
2022-11-06T18:49:36.878Z,60.70
2022-11-06T18:52:04.614Z,60.11
2022-11-06T18:54:32.262Z,61.16
2022-11-06T18:57:00.296Z,60.93
2022-11-06T18:59:29.739Z,62.39
2022-11-06T19:01:57.949Z,62.02
2022-11-06T19:04:26.868Z,61.39
2022-11-06T19:06:54.877Z,61.44
2022-11-06T19:09:25.247Z,62.40
2022-11-06T19:11:53.899Z,62.28
2022-11-06T19:14:26.840Z,62.05
2022-11-06T19:16:54.492Z,62.32
2022-11-06T19:19:25.471Z,61.83
2022-11-06T19:21:53.718Z,63.25
2022-11-06T19:24:20.995Z,62.61
2022-11-06T19:26:51.068Z,62.02
2022-11-06T19:29:21.054Z,61.82
2022-11-06T19:31:49.652Z,61.30
2022-11-06T19:34:16.862Z,61.88
2022-11-06T19:36:48.785Z,61.88
2022-11-06T19:39:19.337Z,61.00
2022-11-06T19:41:47.914Z,60.46
2022-11-06T19:44:15.545Z,61.49
2022-11-06T19:46:42.726Z,60.74
2022-11-06T19:49:11.586Z,60.80
2022-11-06T19:51:41.054Z,59.82
2022-11-06T19:54:12.356Z,60.25
2022-11-06T19:57:29.145Z,60.00
2022-11-06T19:59:40.228Z,60.37
2022-11-06T20:02:08.256Z,59.35
2022-11-06T20:04:39.403Z,58.99
2022-11-06T20:07:07.988Z,59.44
2022-11-06T20:09:35.204Z,60.17
2022-11-06T20:12:04.341Z,59.06
2022-11-06T20:14:31.816Z,60.02
2022-11-06T20:16:59.156Z,60.25
2022-11-06T20:19:27.982Z,60.72
2022-11-06T20:21:58.692Z,60.63
2022-11-06T20:24:27.033Z,60.91
2022-11-06T20:26:54.923Z,60.94
2022-11-06T20:29:22.277Z,60.84
2022-11-06T20:31:52.772Z,61.34
2022-11-06T20:34:26.954Z,61.29
2022-11-06T20:36:54.767Z,61.50
2022-11-06T20:39:22.646Z,61.34
2022-11-06T20:41:52.332Z,61.19
2022-11-06T20:44:19.536Z,60.72
2022-11-06T20:46:47.915Z,60.28
2022-11-06T20:49:15.377Z,61.11
2022-11-06T20:52:07.392Z,60.99
2022-11-06T20:54:29.895Z,61.63
2022-11-06T20:56:57.114Z,62.01
2022-11-06T20:59:24.026Z,62.00
2022-11-06T21:01:52.261Z,62.85
2022-11-06T21:04:19.620Z,61.60
2022-11-06T21:06:47.709Z,60.47
2022-11-06T21:09:16.948Z,61.16
2022-11-06T21:11:43.936Z,61.46
2022-11-06T21:14:11.181Z,61.45
2022-11-06T21:16:42.516Z,61.85
2022-11-06T21:19:10.367Z,61.56
2022-11-06T21:21:38.183Z,61.97
2022-11-06T21:24:06.095Z,61.32
2022-11-06T21:26:37.473Z,61.38
2022-11-06T21:29:05.783Z,60.85
2022-11-06T21:31:43.952Z,61.54
2022-11-06T21:34:25.478Z,62.20
2022-11-06T21:36:52.622Z,62.06
2022-11-06T21:39:21.642Z,62.08
2022-11-06T21:41:54.036Z,62.89
2022-11-06T21:44:22.379Z,62.91
2022-11-06T21:46:54.126Z,62.04
2022-11-06T21:49:21.746Z,61.81
2022-11-06T21:51:51.789Z,61.08
2022-11-06T21:54:37.483Z,60.69
2022-11-06T21:57:04.697Z,60.36
2022-11-06T21:59:35.198Z,62.23
2022-11-06T22:02:06.407Z,61.37
2022-11-06T22:04:33.512Z,62.48
2022-11-06T22:07:00.240Z,62.74
2022-11-06T22:09:28.498Z,62.38
2022-11-06T22:11:55.627Z,62.09
2022-11-06T22:14:22.481Z,61.89
2022-11-06T22:16:49.867Z,62.13
2022-11-06T22:19:17.681Z,61.36
2022-11-06T22:21:44.434Z,62.00
2022-11-06T22:24:11.674Z,61.90
2022-11-06T22:26:38.712Z,62.13
2022-11-06T22:29:06.388Z,63.09
2022-11-06T22:31:33.151Z,63.12
2022-11-06T22:34:00.222Z,62.64
2022-11-06T22:36:26.913Z,61.59
2022-11-06T22:38:53.871Z,61.65
2022-11-06T22:41:22.352Z,62.61
2022-11-06T22:43:49.099Z,62.87
2022-11-06T22:46:20.182Z,63.86
2022-11-06T22:48:47.544Z,63.71
2022-11-06T22:51:15.235Z,62.49
2022-11-06T22:53:42.042Z,62.22
2022-11-06T22:56:09.155Z,62.04
2022-11-06T22:58:35.794Z,62.21
2022-11-06T23:01:02.478Z,62.19
2022-11-06T23:03:29.900Z,62.31
2022-11-06T23:05:59.960Z,63.23
2022-11-06T23:08:26.824Z,63.35
2022-11-06T23:10:54.794Z,62.56
2022-11-06T23:13:21.668Z,63.53
2022-11-06T23:15:48.555Z,62.50
2022-11-06T23:18:15.478Z,62.70
2022-11-06T23:20:42.164Z,63.14
2022-11-06T23:23:08.850Z,63.23
2022-11-06T23:25:35.919Z,63.12
2022-11-06T23:28:02.583Z,63.44
2022-11-06T23:30:32.164Z,63.40
2022-11-06T23:32:59.080Z,63.46
2022-11-06T23:35:31.985Z,63.29
2022-11-06T23:37:59.742Z,63.38
2022-11-06T23:40:26.424Z,62.58
2022-11-06T23:42:54.776Z,62.98
2022-11-06T23:45:40.570Z,62.88
2022-11-06T23:48:13.498Z,62.89
2022-11-06T23:50:40.854Z,63.49
2022-11-06T23:53:07.561Z,63.51
2022-11-06T23:55:34.204Z,62.91
2022-11-06T23:58:01.144Z,63.49
